Time;durP1;ratioP1;P1;durP2;ratioP2;P2;SDS_P1;SDS_P2;PMS_P1;PMS_P2;Temp;Humidity;BMP_temperature;BMP_pressure;BME280_temperature;BME280_humidity;BME280_pressure;Samples;Min_cycle;Max_cycle;Signal;HPM_P1;HPM_P2
2022/12/27 00:01:11;;;;;;;33.17;27.63;;;12.90;99.90;;;;;;5078342;28;20130;-75
2022/12/27 00:03:39;;;;;;;39.60;28.30;;;12.90;99.90;;;;;;5077761;28;20502;-75
2022/12/27 00:06:16;;;;;;;38.33;26.88;;;12.90;99.90;;;;;;5079095;28;20192;-75
2022/12/27 00:08:45;;;;;;;43.75;30.08;;;12.90;99.90;;;;;;5074742;28;20379;-75
2022/12/27 00:11:15;;;;;;;37.33;26.88;;;12.90;99.90;;;;;;5083059;28;20040;-74
2022/12/27 00:13:44;;;;;;;39.75;27.48;;;12.90;99.90;;;;;;5084846;28;20045;-75
2022/12/27 00:16:14;;;;;;;37.20;27.25;;;12.90;99.90;;;;;;5089722;28;20702;-75
2022/12/27 00:18:42;;;;;;;33.65;23.38;;;12.90;99.90;;;;;;5080607;28;20498;-75
2022/12/27 00:21:11;;;;;;;37.85;24.73;;;12.90;99.90;;;;;;5104157;28;20381;-75
2022/12/27 00:23:42;;;;;;;42.63;22.83;;;12.90;99.90;;;;;;5082082;28;20085;-75
2022/12/27 00:26:15;;;;;;;34.33;20.58;;;12.90;99.90;;;;;;5079246;28;20044;-75
2022/12/27 00:28:43;;;;;;;33.60;21.75;;;13.00;99.90;;;;;;5094792;28;20436;-75
2022/12/27 00:31:12;;;;;;;31.17;20.88;;;13.00;99.90;;;;;;5081630;28;20440;-75
2022/12/27 00:33:42;;;;;;;32.28;22.42;;;13.00;99.90;;;;;;5075955;28;20570;-75
2022/12/27 00:36:13;;;;;;;32.80;20.90;;;13.00;99.90;;;;;;5079181;28;20114;-75
2022/12/27 00:38:41;;;;;;;26.05;17.42;;;13.00;99.90;;;;;;5075035;28;20036;-75
2022/12/27 00:41:09;;;;;;;27.02;18.55;;;13.10;99.90;;;;;;5075347;28;20049;-75
2022/12/27 00:43:37;;;;;;;26.80;18.05;;;13.10;99.90;;;;;;5079454;28;20040;-75
2022/12/27 00:46:04;;;;;;;22.02;15.80;;;13.20;99.90;;;;;;5068992;28;20721;-75
2022/12/27 00:48:33;;;;;;;24.77;16.65;;;13.20;99.90;;;;;;5065760;28;20045;-75
2022/12/27 00:51:06;;;;;;;21.35;14.63;;;13.20;99.90;;;;;;5076675;28;20074;-75
2022/12/27 00:53:35;;;;;;;20.35;13.82;;;13.20;99.90;;;;;;5086211;28;20048;-75
2022/12/27 00:56:11;;;;;;;23.15;15.68;;;13.30;99.90;;;;;;5086277;28;20036;-75
2022/12/27 00:58:39;;;;;;;21.05;13.25;;;13.30;99.90;;;;;;5038273;28;20581;-75
2022/12/27 01:01:13;;;;;;;23.42;15.88;;;13.30;99.90;;;;;;5042518;28;20052;-75
2022/12/27 01:03:41;;;;;;;26.25;16.77;;;13.40;99.90;;;;;;5032790;28;20040;-75
2022/12/27 01:06:11;;;;;;;28.02;14.15;;;13.40;99.90;;;;;;5029415;28;20045;-75
2022/12/27 01:08:40;;;;;;;21.40;16.17;;;13.40;99.90;;;;;;5039313;28;20454;-75
2022/12/27 01:11:08;;;;;;;21.23;14.20;;;13.40;99.90;;;;;;5035026;28;20117;-75
2022/12/27 01:13:36;;;;;;;19.20;13.73;;;13.40;99.90;;;;;;5050333;28;20127;-75
2022/12/27 01:16:09;;;;;;;21.67;14.10;;;13.50;99.90;;;;;;5047394;28;20041;-75
2022/12/27 01:18:37;;;;;;;18.85;12.98;;;13.50;99.90;;;;;;5037538;28;20041;-75
2022/12/27 01:21:07;;;;;;;17.10;11.75;;;13.50;99.90;;;;;;5020103;28;20052;-75
2022/12/27 01:23:36;;;;;;;18.63;12.32;;;13.50;99.90;;;;;;5034913;28;20068;-75
2022/12/27 01:26:06;;;;;;;15.27;11.18;;;13.50;99.90;;;;;;5050843;28;20125;-75
2022/12/27 01:28:35;;;;;;;16.08;11.48;;;13.50;99.90;;;;;;5042290;28;20491;-75
2022/12/27 01:31:11;;;;;;;18.88;12.13;;;13.50;99.90;;;;;;5038505;28;20048;-75
2022/12/27 01:33:39;;;;;;;19.33;13.00;;;13.50;99.90;;;;;;5060174;28;20064;-75
2022/12/27 01:36:22;;;;;;;19.35;12.73;;;13.60;99.90;;;;;;5047615;28;20062;-75
2022/12/27 01:38:50;;;;;;;15.50;11.52;;;13.60;99.90;;;;;;5051892;28;20146;-75
2022/12/27 01:44:38;;;;;;;21.13;14.27;;;13.60;99.90;;;;;;5048165;28;20448;-75
2022/12/27 01:47:19;;;;;;;19.30;12.63;;;13.50;99.90;;;;;;5037833;28;20131;-75
2022/12/27 01:50:02;;;;;;;20.05;12.95;;;13.50;99.90;;;;;;5047780;28;20049;-75
2022/12/27 01:52:49;;;;;;;16.73;12.20;;;13.50;99.90;;;;;;5034348;28;20042;-75
2022/12/27 01:55:16;;;;;;;21.25;13.63;;;13.50;99.90;;;;;;5061197;28;20040;-75
2022/12/27 01:57:45;;;;;;;21.67;13.93;;;13.40;99.90;;;;;;5089070;28;20056;-75
2022/12/27 02:00:13;;;;;;;20.02;11.73;;;13.40;99.90;;;;;;5085735;28;20040;-75
2022/12/27 02:02:40;;;;;;;18.75;12.25;;;13.40;99.90;;;;;;5067783;28;20055;-75
2022/12/27 02:05:10;;;;;;;19.27;11.93;;;13.40;99.90;;;;;;5088193;28;20516;-75
2022/12/27 02:08:02;;;;;;;20.58;12.80;;;13.40;99.90;;;;;;5085915;28;20040;-75
2022/12/27 02:10:31;;;;;;;16.70;12.40;;;13.40;99.90;;;;;;5085910;28;20048;-75
2022/12/27 02:12:59;;;;;;;18.13;11.60;;;13.40;99.90;;;;;;5087263;28;20504;-76
2022/12/27 02:15:27;;;;;;;17.73;12.27;;;13.40;99.90;;;;;;5085918;28;20051;-75
2022/12/27 02:17:54;;;;;;;14.50;11.35;;;13.40;99.90;;;;;;5086658;28;20062;-75
2022/12/27 02:20:24;;;;;;;18.70;10.88;;;13.40;99.90;;;;;;5086081;28;20075;-75
2022/12/27 02:26:49;;;;;;;18.80;13.02;;;13.40;99.90;;;;;;5089125;28;20055;-75
2022/12/27 02:29:44;;;;;;;18.45;11.18;;;13.40;99.90;;;;;;5087761;28;20146;-75
2022/12/27 02:32:25;;;;;;;16.23;11.43;;;13.40;99.90;;;;;;5087703;28;20044;-75
2022/12/27 02:35:08;;;;;;;20.00;13.55;;;13.40;99.90;;;;;;5087287;28;20047;-75
2022/12/27 02:37:43;;;;;;;20.33;13.73;;;13.30;99.90;;;;;;5088673;28;20420;-75
2022/12/27 02:55:06;;;;;;;22.52;12.90;;;13.20;99.90;;;;;;5089201;28;20139;-75
2022/12/27 02:57:41;;;;;;;18.25;11.45;;;13.10;99.90;;;;;;5087284;28;20062;-75
2022/12/27 03:03:19;;;;;;;21.92;13.63;;;13.10;99.90;;;;;;5068380;28;20036;-75
2022/12/27 03:06:41;;;;;;;16.13;11.65;;;13.10;99.90;;;;;;5068573;28;20049;-75
2022/12/27 03:15:56;;;;;;;16.40;10.63;;;13.00;99.90;;;;;;5087098;28;20048;-74
2022/12/27 03:18:26;;;;;;;20.90;12.75;;;13.00;99.90;;;;;;5088811;28;20126;-75
2022/12/27 03:26:49;;;;;;;20.13;12.20;;;13.00;99.90;;;;;;5054279;28;20413;-75
2022/12/27 03:35:18;;;;;;;18.00;12.82;;;12.90;99.90;;;;;;5070820;28;20048;-75
2022/12/27 03:38:04;;;;;;;20.42;13.52;;;12.90;99.90;;;;;;5088309;28;20067;-75
2022/12/27 03:43:30;;;;;;;20.48;11.93;;;12.90;99.90;;;;;;5088498;28;20065;-75
2022/12/27 03:46:33;;;;;;;19.40;13.00;;;12.80;99.90;;;;;;5087471;28;20513;-75
2022/12/27 03:49:03;;;;;;;22.38;12.27;;;12.80;99.90;;;;;;5080840;28;20052;-75
2022/12/27 03:51:57;;;;;;;21.27;12.43;;;12.70;99.90;;;;;;5070239;28;20091;-75
2022/12/27 03:54:31;;;;;;;17.88;13.07;;;12.60;99.90;;;;;;5062581;28;20060;-74
2022/12/27 03:57:03;;;;;;;21.20;13.25;;;12.60;99.90;;;;;;5081968;28;20052;-75
2022/12/27 03:59:31;;;;;;;19.38;13.68;;;12.60;99.90;;;;;;5088236;28;20447;-75
2022/12/27 04:01:59;;;;;;;19.10;12.68;;;12.60;99.90;;;;;;5087856;28;20044;-74
2022/12/27 04:04:27;;;;;;;19.20;13.38;;;12.60;99.90;;;;;;5087836;28;20052;-75
2022/12/27 04:06:54;;;;;;;20.95;12.32;;;12.50;99.90;;;;;;5091386;28;20052;-75
2022/12/27 04:37:00;;;;;;;22.83;13.93;;;12.10;99.90;;;;;;5091788;28;20224;-74
2022/12/27 04:39:28;;;;;;;19.73;13.07;;;12.10;99.90;;;;;;5091077;28;20044;-74
2022/12/27 04:56:01;;;;;;;23.92;14.73;;;12.00;99.90;;;;;;5068206;28;20069;-75
2022/12/27 04:58:29;;;;;;;21.05;13.20;;;11.90;99.90;;;;;;5069379;28;20490;-74
2022/12/27 05:03:49;;;;;;;23.10;15.48;;;11.90;99.90;;;;;;5089843;28;20079;-75
2022/12/27 05:06:17;;;;;;;23.55;19.33;;;11.90;99.90;;;;;;5090793;28;20056;-74
2022/12/27 05:14:17;;;;;;;22.75;13.35;;;12.00;99.90;;;;;;5090786;28;20081;-75
2022/12/27 05:16:44;;;;;;;19.48;11.88;;;12.00;99.90;;;;;;5090427;28;20186;-75
2022/12/27 05:19:13;;;;;;;19.98;13.52;;;12.00;99.90;;;;;;5071900;28;20048;-74
2022/12/27 05:27:16;;;;;;;19.42;14.45;;;11.90;99.90;;;;;;5089428;28;20040;-75
2022/12/27 05:29:46;;;;;;;16.85;12.13;;;11.80;99.90;;;;;;5088473;28;20036;-74
2022/12/27 05:32:13;;;;;;;23.85;14.32;;;11.80;99.90;;;;;;5090173;28;20047;-74
2022/12/27 05:34:40;;;;;;;28.35;17.40;;;11.80;99.90;;;;;;5088554;28;20044;-75
2022/12/27 05:37:08;;;;;;;26.95;18.75;;;11.80;99.90;;;;;;5089735;28;20047;-75
2022/12/27 05:39:35;;;;;;;32.33;19.08;;;11.80;99.90;;;;;;5089828;28;20082;-75
2022/12/27 05:42:03;;;;;;;23.58;15.80;;;11.80;99.90;;;;;;5089715;28;20044;-74
2022/12/27 05:44:30;;;;;;;20.33;13.30;;;11.80;99.90;;;;;;5071884;28;20052;-74
2022/12/27 05:46:58;;;;;;;24.08;12.70;;;11.80;99.90;;;;;;5076448;28;20044;-74
2022/12/27 05:49:25;;;;;;;17.42;11.15;;;11.70;99.90;;;;;;5068913;28;20383;-74
2022/12/27 05:51:53;;;;;;;19.10;12.60;;;11.70;99.90;;;;;;5087905;28;20051;-75
2022/12/27 05:54:20;;;;;;;21.42;11.85;;;11.70;99.90;;;;;;5087873;28;20090;-75
2022/12/27 05:56:48;;;;;;;25.17;14.30;;;11.60;99.90;;;;;;5086836;28;20052;-74
2022/12/27 05:59:15;;;;;;;24.40;14.25;;;11.70;99.90;;;;;;5089493;28;20192;-74
2022/12/27 06:01:43;;;;;;;21.30;13.68;;;11.70;99.90;;;;;;5089685;28;20040;-74
2022/12/27 06:04:10;;;;;;;23.25;13.88;;;11.70;99.90;;;;;;5089717;28;20381;-75
2022/12/27 06:06:38;;;;;;;20.67;13.75;;;11.70;99.90;;;;;;5094687;28;20039;-74
2022/12/27 06:09:05;;;;;;;23.42;15.00;;;11.70;99.90;;;;;;5099547;28;20206;-74
2022/12/27 06:11:33;;;;;;;21.25;13.23;;;11.80;99.90;;;;;;5088456;28;20124;-75
2022/12/27 06:14:00;;;;;;;16.48;12.90;;;11.80;99.90;;;;;;5087102;28;20032;-74
2022/12/27 06:16:28;;;;;;;21.15;14.05;;;11.80;99.90;;;;;;5098062;28;20044;-76
2022/12/27 06:18:55;;;;;;;17.52;11.80;;;11.80;99.90;;;;;;5109454;28;20050;-76
2022/12/27 06:21:23;;;;;;;20.65;13.43;;;11.80;99.90;;;;;;5091277;28;20086;-76
2022/12/27 06:23:50;;;;;;;18.38;13.45;;;11.90;99.90;;;;;;5089595;28;20044;-76
2022/12/27 06:26:22;;;;;;;18.83;12.45;;;12.10;99.90;;;;;;5089331;28;20059;-77
2022/12/27 06:28:51;;;;;;;21.75;13.82;;;12.30;99.90;;;;;;5089607;28;20142;-75
2022/12/27 06:31:19;;;;;;;21.15;12.60;;;12.70;99.90;;;;;;5089325;28;20036;-75
2022/12/27 06:33:48;;;;;;;15.95;11.23;;;13.10;99.90;;;;;;5087707;28;20112;-74
2022/12/27 06:36:19;;;;;;;18.45;11.40;;;13.30;99.90;;;;;;5071476;28;20425;-75
2022/12/27 06:38:46;;;;;;;16.40;10.98;;;13.50;99.90;;;;;;5089072;28;20043;-75
2022/12/27 06:41:16;;;;;;;23.17;10.82;;;13.80;99.90;;;;;;5089344;28;20044;-75
2022/12/27 06:43:45;;;;;;;14.05;10.32;;;14.30;99.90;;;;;;5087737;28;20040;-75
2022/12/27 06:46:16;;;;;;;12.93;10.40;;;15.00;99.90;;;;;;5070956;28;20464;-75
2022/12/27 06:48:46;;;;;;;13.77;9.00;;;15.60;99.90;;;;;;5071674;28;20091;-75
2022/12/27 06:51:16;;;;;;;12.43;9.15;;;16.30;99.90;;;;;;5089182;28;20126;-75
2022/12/27 06:53:46;;;;;;;11.20;8.20;;;16.40;99.90;;;;;;5088500;28;20044;-75
2022/12/27 06:56:16;;;;;;;13.15;9.23;;;16.20;99.90;;;;;;5087155;28;20062;-75
2022/12/27 06:58:48;;;;;;;12.45;8.57;;;16.30;99.90;;;;;;5087762;28;20043;-74
2022/12/27 07:01:24;;;;;;;10.05;7.60;;;16.40;99.90;;;;;;5088238;28;20066;-74
2022/12/27 07:03:56;;;;;;;11.35;8.18;;;16.40;99.90;;;;;;5088436;28;20051;-74
2022/12/27 07:06:26;;;;;;;13.30;9.25;;;16.80;99.90;;;;;;5087052;28;20055;-74
2022/12/27 07:08:54;;;;;;;11.50;8.35;;;17.50;99.90;;;;;;5086755;28;20048;-74
2022/12/27 07:11:22;;;;;;;11.63;7.93;;;18.30;99.90;;;;;;5088557;28;20055;-75
2022/12/27 07:13:52;;;;;;;12.90;8.15;;;19.20;99.90;;;;;;5088540;28;20052;-74
2022/12/27 07:16:23;;;;;;;11.05;8.57;;;19.80;99.90;;;;;;5088261;28;20036;-74
2022/12/27 07:18:51;;;;;;;11.60;7.93;;;20.20;99.90;;;;;;5087578;28;20104;-74
2022/12/27 07:21:21;;;;;;;13.98;8.25;;;20.60;99.90;;;;;;5086875;28;20687;-74
2022/12/27 07:23:50;;;;;;;11.10;7.53;;;20.50;99.90;;;;;;5086212;28;20498;-74
2022/12/27 07:26:20;;;;;;;13.43;6.88;;;20.70;99.90;;;;;;5087655;28;20048;-75
2022/12/27 07:28:48;;;;;;;11.52;7.43;;;21.30;99.90;;;;;;5088429;28;20490;-74
2022/12/27 07:31:18;;;;;;;10.77;6.72;;;21.50;99.90;;;;;;5087306;28;20063;-75
2022/12/27 07:33:46;;;;;;;10.60;8.02;;;21.90;99.90;;;;;;5088643;28;20042;-75
2022/12/27 07:36:20;;;;;;;11.05;7.57;;;22.40;99.90;;;;;;5088850;28;20500;-74
2022/12/27 07:38:48;;;;;;;12.88;7.45;;;22.00;99.90;;;;;;5088202;28;20414;-75
2022/12/27 07:41:17;;;;;;;8.07;5.65;;;21.50;99.90;;;;;;5090396;28;20067;-74
2022/12/27 07:43:45;;;;;;;8.15;4.93;;;21.10;99.90;;;;;;5086551;28;20175;-75
2022/12/27 07:46:15;;;;;;;14.65;7.18;;;20.90;99.90;;;;;;5071453;28;20054;-75
2022/12/27 07:48:43;;;;;;;9.00;5.93;;;21.00;99.90;;;;;;5071881;28;20104;-74
2022/12/27 07:51:11;;;;;;;11.43;5.40;;;20.80;99.90;;;;;;5085269;28;20491;-74
2022/12/27 07:53:39;;;;;;;9.43;7.78;;;20.30;99.90;;;;;;5090987;28;20482;-74
2022/12/27 07:56:13;;;;;;;9.05;6.03;;;19.40;99.90;;;;;;5091837;28;20121;-74
2022/12/27 07:58:45;;;;;;;11.27;6.88;;;19.10;99.90;;;;;;5092105;28;20059;-75
2022/12/27 08:01:13;;;;;;;8.48;5.65;;;19.10;99.90;;;;;;5090608;28;20449;-74
2022/12/27 08:03:41;;;;;;;14.38;7.03;;;19.20;99.90;;;;;;5092089;28;20048;-74
2022/12/27 08:06:30;;;;;;;10.95;7.53;;;18.70;99.90;;;;;;5091801;28;20048;-75
2022/12/27 08:08:59;;;;;;;13.20;8.27;;;18.20;99.90;;;;;;5092065;28;20409;-74
2022/12/27 08:11:27;;;;;;;13.38;7.50;;;18.00;99.90;;;;;;5085454;28;20463;-74
2022/12/27 08:13:55;;;;;;;10.73;7.82;;;18.00;99.90;;;;;;5091160;28;20148;-75
2022/12/27 08:16:24;;;;;;;13.18;8.40;;;17.70;99.90;;;;;;5091562;28;20040;-74
2022/12/27 08:18:52;;;;;;;10.02;6.97;;;17.40;99.90;;;;;;5090105;28;20066;-74
2022/12/27 08:21:19;;;;;;;11.48;7.95;;;17.40;99.90;;;;;;5091005;28;20127;-74
2022/12/27 08:23:47;;;;;;;11.63;7.18;;;17.50;99.90;;;;;;5091724;28;20496;-74
2022/12/27 08:26:15;;;;;;;12.55;7.38;;;17.70;99.90;;;;;;5091093;28;20473;-74
2022/12/27 08:28:42;;;;;;;10.40;6.43;;;18.00;99.90;;;;;;5091375;28;20044;-74
2022/12/27 08:31:12;;;;;;;11.20;7.57;;;17.90;99.90;;;;;;5091209;28;20048;-74
2022/12/27 08:33:40;;;;;;;8.23;6.97;;;17.90;99.90;;;;;;5091446;28;20044;-74
2022/12/27 08:36:10;;;;;;;13.65;7.63;;;17.60;99.90;;;;;;5072592;28;20075;-75
2022/12/27 08:38:48;;;;;;;10.00;7.25;;;17.70;99.90;;;;;;5089523;28;20489;-75
2022/12/27 08:41:19;;;;;;;10.82;7.45;;;17.90;99.90;;;;;;5088528;28;20043;-74
2022/12/27 08:43:47;;;;;;;9.98;7.38;;;17.90;99.90;;;;;;5072167;28;20478;-75
2022/12/27 08:46:14;;;;;;;12.15;8.20;;;17.90;99.90;;;;;;5090501;28;20379;-75
2022/12/27 08:48:42;;;;;;;17.95;7.10;;;17.50;99.90;;;;;;5089220;28;20470;-74
2022/12/27 08:51:10;;;;;;;11.68;7.28;;;17.50;99.90;;;;;;5090348;28;20047;-74
2022/12/27 08:53:39;;;;;;;11.48;7.55;;;17.30;99.90;;;;;;5091029;28;20051;-75
2022/12/27 08:56:06;;;;;;;11.68;7.35;;;17.20;99.90;;;;;;5089055;28;20166;-74
2022/12/27 08:58:34;;;;;;;10.68;7.68;;;17.40;99.90;;;;;;5072859;28;20055;-74
2022/12/27 09:01:09;;;;;;;11.30;6.43;;;17.50;99.90;;;;;;5089226;28;20063;-74
2022/12/27 09:03:36;;;;;;;9.13;6.32;;;17.50;99.90;;;;;;5089920;28;20044;-75
2022/12/27 09:06:15;;;;;;;14.07;8.00;;;17.40;99.90;;;;;;5091065;28;20640;-74
2022/12/27 09:08:45;;;;;;;14.82;7.05;;;17.50;99.90;;;;;;5089279;28;20478;-74
2022/12/27 09:11:15;;;;;;;13.25;7.32;;;17.70;99.90;;;;;;5090705;28;20454;-74
2022/12/27 09:13:43;;;;;;;22.90;12.57;;;17.60;99.90;;;;;;5090482;28;20350;-74
2022/12/27 09:16:14;;;;;;;19.42;11.38;;;17.60;99.90;;;;;;5090506;28;20054;-75
2022/12/27 09:18:45;;;;;;;11.88;6.95;;;17.70;99.90;;;;;;5091036;28;20044;-74
2022/12/27 09:21:15;;;;;;;9.65;7.20;;;17.80;99.90;;;;;;5090534;28;20093;-74
2022/12/27 09:23:44;;;;;;;10.65;6.32;;;17.70;99.90;;;;;;5089502;28;20047;-74
2022/12/27 09:26:17;;;;;;;11.68;7.90;;;17.70;99.90;;;;;;5089481;28;20036;-74
2022/12/27 09:28:46;;;;;;;14.15;8.77;;;17.80;99.90;;;;;;5090163;28;20040;-74
2022/12/27 09:31:15;;;;;;;12.65;7.97;;;17.80;99.90;;;;;;5088356;28;20055;-74
2022/12/27 09:33:43;;;;;;;13.38;7.82;;;18.10;99.90;;;;;;5089585;28;20050;-74
2022/12/27 09:36:13;;;;;;;10.60;7.88;;;18.50;99.90;;;;;;5086544;28;20115;-74
2022/12/27 09:38:41;;;;;;;10.20;7.68;;;18.90;99.90;;;;;;5088341;28;20519;-75
2022/12/27 09:41:33;;;;;;;9.50;6.68;;;19.30;99.90;;;;;;5089863;28;20120;-74
2022/12/27 09:44:47;;;;;;;12.70;6.80;;;19.30;99.90;;;;;;5090389;28;20039;-74
2022/12/27 09:47:32;;;;;;;13.63;6.50;;;18.80;99.90;;;;;;5090475;28;20032;-74
2022/12/27 09:50:23;;;;;;;10.07;7.18;;;18.80;99.90;;;;;;5089789;28;20044;-75
2022/12/27 09:53:06;;;;;;;12.48;7.88;;;18.90;99.90;;;;;;5081007;28;20398;-74
2022/12/27 09:55:40;;;;;;;11.80;7.60;;;18.50;99.90;;;;;;5088533;28;20063;-74
2022/12/27 09:58:32;;;;;;;12.82;8.43;;;18.40;99.90;;;;;;5089291;28;20138;-74
2022/12/27 10:01:01;;;;;;;14.63;8.45;;;17.90;99.90;;;;;;5089296;28;20114;-74
2022/12/27 10:03:29;;;;;;;13.80;8.73;;;18.00;99.90;;;;;;5089056;28;20047;-74
2022/12/27 10:06:17;;;;;;;12.63;7.65;;;17.90;99.90;;;;;;5089018;28;20080;-74
2022/12/27 10:09:13;;;;;;;12.65;7.55;;;18.10;99.90;;;;;;5088823;28;20036;-74
2022/12/27 10:11:57;;;;;;;14.43;7.70;;;18.30;99.90;;;;;;5089206;28;20047;-74
2022/12/27 10:15:00;;;;;;;14.57;8.90;;;18.40;99.90;;;;;;5071287;28;20079;-73
2022/12/27 10:18:09;;;;;;;11.55;7.53;;;18.60;99.90;;;;;;5061287;28;20049;-75
2022/12/27 10:20:52;;;;;;;9.95;6.75;;;18.90;99.90;;;;;;5067304;28;20056;-74
2022/12/27 10:23:25;;;;;;;10.60;5.95;;;19.40;99.90;;;;;;5089321;28;20085;-74
2022/12/27 10:25:57;;;;;;;12.30;7.57;;;19.50;99.90;;;;;;5089268;28;20070;-74
2022/12/27 10:28:37;;;;;;;11.98;7.38;;;19.90;99.90;;;;;;5089452;28;20508;-74
2022/12/27 10:31:12;;;;;;;8.05;5.90;;;20.00;99.90;;;;;;5088961;28;20044;-74
2022/12/27 10:33:39;;;;;;;7.90;5.53;;;19.50;99.90;;;;;;5089252;28;20055;-74
2022/12/27 10:36:11;;;;;;;6.95;5.40;;;19.50;99.90;;;;;;5088598;28;20081;-74
2022/12/27 10:38:39;;;;;;;12.52;6.38;;;19.20;99.90;;;;;;5088686;28;20098;-74
2022/12/27 10:41:19;;;;;;;12.18;6.53;;;19.10;99.90;;;;;;5087201;28;20070;-74
2022/12/27 10:43:50;;;;;;;10.20;6.00;;;19.00;99.90;;;;;;5088711;28;20081;-75
2022/12/27 10:46:22;;;;;;;8.52;5.97;;;19.10;99.90;;;;;;5088043;28;20072;-74
2022/12/27 10:48:58;;;;;;;7.22;5.07;;;19.10;99.90;;;;;;5088242;28;20519;-74
2022/12/27 10:51:47;;;;;;;14.02;5.88;;;19.30;99.90;;;;;;5088322;28;20173;-74
2022/12/27 10:54:27;;;;;;;11.52;6.75;;;19.00;99.90;;;;;;5089141;28;20090;-74
2022/12/27 10:57:14;;;;;;;9.70;6.38;;;19.00;99.90;;;;;;5088644;28;20105;-74
2022/12/27 10:59:42;;;;;;;9.48;6.65;;;19.10;99.90;;;;;;5088935;28;20047;-73
2022/12/27 11:02:18;;;;;;;15.57;10.43;;;19.30;99.90;;;;;;5086919;28;20100;-74
2022/12/27 11:04:58;;;;;;;19.20;13.02;;;19.30;99.90;;;;;;5087340;28;20048;-75
2022/12/27 11:07:31;;;;;;;10.07;6.25;;;19.60;99.90;;;;;;5087092;28;20055;-74
2022/12/27 11:10:18;;;;;;;12.70;7.40;;;19.60;99.90;;;;;;5088289;28;20067;-75
2022/12/27 11:13:00;;;;;;;15.35;9.57;;;19.50;99.90;;;;;;5087046;28;20059;-76
2022/12/27 11:15:33;;;;;;;9.85;7.68;;;19.60;99.90;;;;;;5091626;28;20050;-74
2022/12/27 11:18:14;;;;;;;9.50;7.07;;;20.00;99.90;;;;;;5074854;28;20395;-76
2022/12/27 11:20:53;;;;;;;8.85;6.18;;;20.30;99.90;;;;;;5091016;28;20175;-75
2022/12/27 11:23:24;;;;;;;8.90;6.93;;;20.60;99.90;;;;;;5090595;28;20523;-76
2022/12/27 11:26:01;;;;;;;12.77;7.93;;;20.80;99.90;;;;;;5073991;28;20378;-76
2022/12/27 11:28:44;;;;;;;10.30;7.93;;;20.90;99.90;;;;;;5092372;28;20055;-76
2022/12/27 11:31:15;;;;;;;13.65;10.15;;;20.80;99.90;;;;;;5090997;28;20199;-75
2022/12/27 11:33:50;;;;;;;10.00;7.57;;;20.80;99.90;;;;;;5090505;28;20440;-75
2022/12/27 11:36:29;;;;;;;10.73;5.38;;;20.80;99.90;;;;;;5072790;28;20052;-75
2022/12/27 11:38:57;;;;;;;10.48;6.38;;;20.60;99.90;;;;;;5070998;28;20053;-76
2022/12/27 11:41:42;;;;;;;11.13;7.93;;;20.60;99.90;;;;;;5084037;28;20056;-75
2022/12/27 11:44:20;;;;;;;12.65;7.80;;;20.40;99.90;;;;;;5090680;28;20126;-76
2022/12/27 11:46:56;;;;;;;10.30;6.95;;;20.30;99.90;;;;;;5092383;28;20170;-76
2022/12/27 11:49:35;;;;;;;8.80;6.65;;;20.30;99.90;;;;;;5073917;28;20054;-75
2022/12/27 11:52:21;;;;;;;11.13;7.97;;;20.40;99.90;;;;;;5092132;28;20811;-76
2022/12/27 11:54:48;;;;;;;12.73;9.60;;;20.30;99.90;;;;;;5091379;28;20482;-75
2022/12/27 11:57:43;;;;;;;23.58;13.65;;;20.00;99.90;;;;;;5092121;28;20044;-76
2022/12/27 12:00:25;;;;;;;17.60;10.88;;;19.90;99.90;;;;;;5090501;28;20371;-76
2022/12/27 12:03:08;;;;;;;17.85;11.40;;;19.90;99.90;;;;;;5091649;28;20043;-75
2022/12/27 12:05:48;;;;;;;16.27;11.75;;;20.00;99.90;;;;;;5091991;28;20044;-75
2022/12/27 12:08:19;;;;;;;12.02;8.75;;;20.20;99.90;;;;;;5090083;28;20048;-76
2022/12/27 12:11:19;;;;;;;11.23;6.75;;;20.50;99.90;;;;;;5090917;28;20052;-76
2022/12/27 12:14:10;;;;;;;8.35;5.85;;;20.00;99.90;;;;;;5070277;28;20541;-74
2022/12/27 12:16:44;;;;;;;8.73;6.35;;;19.80;99.90;;;;;;5070977;28;20502;-75
2022/12/27 12:19:24;;;;;;;13.55;8.48;;;19.60;99.90;;;;;;5073887;28;20043;-75
2022/12/27 12:22:13;;;;;;;12.02;8.07;;;19.60;99.90;;;;;;5085648;28;20439;-76
2022/12/27 12:25:14;;;;;;;12.40;6.90;;;19.70;99.90;;;;;;5091159;28;20050;-75
2022/12/27 12:28:05;;;;;;;10.85;6.70;;;20.00;99.90;;;;;;5090919;28;20576;-76
2022/12/27 12:30:49;;;;;;;9.38;8.10;;;20.00;99.90;;;;;;5091304;28;20122;-76
2022/12/27 12:33:35;;;;;;;11.05;8.23;;;19.90;99.90;;;;;;5091371;28;20482;-75
2022/12/27 12:36:11;;;;;;;11.68;8.27;;;20.00;99.90;;;;;;5089954;28;20075;-74
2022/12/27 12:39:01;;;;;;;13.88;10.40;;;20.10;99.90;;;;;;5090780;28;20151;-75
2022/12/27 12:41:51;;;;;;;11.55;7.65;;;20.40;99.90;;;;;;5089867;28;20072;-75
2022/12/27 12:44:43;;;;;;;9.25;6.38;;;20.50;99.90;;;;;;5090118;28;20048;-75
2022/12/27 12:47:48;;;;;;;8.80;5.93;;;20.60;99.90;;;;;;5091627;28;20044;-76
2022/12/27 12:50:51;;;;;;;9.52;6.28;;;20.70;99.90;;;;;;5077235;28;20056;-75
2022/12/27 12:53:29;;;;;;;8.40;6.18;;;20.80;99.90;;;;;;5090780;28;20048;-75
2022/12/27 12:56:06;;;;;;;8.55;6.32;;;20.80;99.90;;;;;;5090700;28;20040;-74
2022/12/27 12:59:22;;;;;;;7.97;6.13;;;20.70;99.90;;;;;;5089247;28;20059;-75
2022/12/27 13:02:21;;;;;;;8.18;5.47;;;20.70;99.90;;;;;;5087596;28;20131;-74
2022/12/27 13:05:13;;;;;;;9.45;6.22;;;20.70;99.90;;;;;;5089679;28;20051;-75
2022/12/27 13:07:44;;;;;;;10.48;6.43;;;20.60;99.90;;;;;;5088760;28;20390;-75
2022/12/27 13:10:39;;;;;;;7.38;5.07;;;20.60;99.90;;;;;;5089672;28;20043;-75
2022/12/27 13:13:28;;;;;;;9.43;6.32;;;20.50;99.90;;;;;;5090097;28;20044;-75
2022/12/27 13:16:04;;;;;;;12.65;7.22;;;20.50;99.90;;;;;;5090078;28;20041;-76
2022/12/27 13:18:44;;;;;;;12.00;8.13;;;20.50;99.90;;;;;;5090048;28;20090;-76
2022/12/27 13:21:20;;;;;;;9.63;6.25;;;20.50;99.90;;;;;;5087756;28;20032;-76
2022/12/27 13:24:06;;;;;;;10.20;7.15;;;20.40;99.90;;;;;;5089141;28;20040;-75
2022/12/27 13:26:38;;;;;;;6.57;5.10;;;20.30;99.90;;;;;;5089098;28;20052;-75
2022/12/27 13:29:05;;;;;;;9.48;6.03;;;20.30;99.90;;;;;;5086967;28;20038;-75
2022/12/27 13:31:47;;;;;;;7.50;5.72;;;20.30;99.90;;;;;;5089908;28;20147;-75
2022/12/27 13:34:43;;;;;;;6.72;5.13;;;20.20;99.90;;;;;;5072465;28;20075;-75
2022/12/27 13:37:22;;;;;;;9.57;6.57;;;20.10;99.90;;;;;;5087659;28;20056;-75
2022/12/27 13:39:56;;;;;;;7.82;5.00;;;20.10;99.90;;;;;;5088790;28;20074;-74
2022/12/27 13:42:40;;;;;;;9.43;5.25;;;20.10;99.90;;;;;;5089543;28;20105;-74
2022/12/27 13:45:28;;;;;;;7.35;5.03;;;20.00;99.90;;;;;;5088634;28;20066;-75
2022/12/27 13:47:55;;;;;;;5.72;4.53;;;19.90;99.90;;;;;;5088004;28;20150;-74
2022/12/27 13:50:26;;;;;;;7.85;4.60;;;19.90;99.90;;;;;;5089942;28;20052;-75
2022/12/27 13:53:38;;;;;;;10.27;6.28;;;19.90;99.90;;;;;;5089702;28;20108;-75
2022/12/27 13:56:40;;;;;;;10.48;6.55;;;19.80;99.90;;;;;;5089309;28;20146;-75
2022/12/27 13:59:22;;;;;;;8.23;4.30;;;19.70;99.90;;;;;;5088756;28;20058;-74
2022/12/27 14:02:10;;;;;;;6.75;5.07;;;19.60;99.90;;;;;;5087831;28;20055;-75
2022/12/27 14:04:51;;;;;;;6.60;4.50;;;19.60;99.90;;;;;;5089411;28;20123;-75
2022/12/27 14:07:51;;;;;;;6.97;4.65;;;19.50;99.90;;;;;;5088491;28;20054;-74
2022/12/27 14:10:38;;;;;;;11.55;5.78;;;19.50;99.90;;;;;;5068676;28;20044;-74
2022/12/27 14:13:08;;;;;;;8.93;4.47;;;19.40;99.90;;;;;;5072001;28;20089;-75
2022/12/27 14:15:41;;;;;;;8.18;6.00;;;19.30;99.90;;;;;;5086116;28;20414;-76
2022/12/27 14:18:09;;;;;;;7.32;4.63;;;19.20;99.90;;;;;;5088108;28;20054;-75
2022/12/27 14:21:00;;;;;;;11.18;5.00;;;19.10;99.90;;;;;;5089110;28;20127;-75
2022/12/27 14:23:53;;;;;;;9.45;5.13;;;19.10;99.90;;;;;;5081702;28;20055;-76
2022/12/27 14:26:48;;;;;;;9.90;5.85;;;19.00;99.90;;;;;;5088225;28;20056;-75
2022/12/27 14:29:54;;;;;;;9.00;5.32;;;19.00;99.90;;;;;;5088939;28;20036;-75
2022/12/27 14:32:46;;;;;;;11.90;6.25;;;18.90;99.90;;;;;;5087812;28;20101;-75
2022/12/27 14:35:40;;;;;;;9.85;6.05;;;18.80;99.90;;;;;;5088868;28;20040;-75
2022/12/27 14:38:45;;;;;;;9.77;5.97;;;18.70;99.90;;;;;;5089076;28;20047;-75
2022/12/27 14:41:50;;;;;;;7.13;5.00;;;18.60;99.90;;;;;;5086494;28;20125;-75
2022/12/27 14:44:42;;;;;;;11.82;6.78;;;18.60;99.90;;;;;;5078399;28;20093;-76
2022/12/27 14:47:43;;;;;;;12.88;7.13;;;18.50;99.90;;;;;;5086982;28;20043;-76
2022/12/27 14:50:24;;;;;;;15.88;8.77;;;18.50;99.90;;;;;;5067694;28;20044;-78
2022/12/27 14:53:16;;;;;;;15.40;8.13;;;18.40;99.90;;;;;;5068101;28;20063;-78
2022/12/27 14:56:06;;;;;;;11.88;7.03;;;18.40;99.90;;;;;;5086410;28;20051;-76
2022/12/27 14:59:02;;;;;;;11.00;6.47;;;18.10;99.90;;;;;;5085807;28;20105;-75
2022/12/27 15:01:45;;;;;;;8.23;5.35;;;17.90;99.90;;;;;;5085686;28;20048;-76